createdAt,value
2017-03-26T10:20:22.765Z,1020.21
2017-03-26T10:21:26.861Z,1020.22
2017-03-26T10:22:31.002Z,1021.15
2017-03-26T10:23:35.334Z,1022.86
2017-03-26T10:24:39.647Z,1023.96
2017-03-26T10:25:42.484Z,1026.09
2017-03-26T10:26:47.204Z,1027.45
2017-03-26T10:27:50.932Z,1028.46
2017-03-26T10:28:54.582Z,1030.14
2017-03-26T10:29:58.628Z,1030.61
2017-03-26T10:31:07.236Z,1030.32
2017-03-26T10:32:09.924Z,1030.87
2017-03-26T10:33:13.377Z,1030.48
2017-03-26T10:34:21.867Z,1019.94
2017-03-26T10:35:25.767Z,1024.03
2017-03-26T10:36:28.409Z,1023.03
2017-03-26T10:37:31.618Z,1022.61
2017-03-26T10:38:35.348Z,1024.18
2017-03-26T10:39:38.496Z,1027.13
2017-03-26T10:40:43.889Z,1028.03
2017-03-26T10:41:47.673Z,1029.02
2017-03-26T10:42:54.039Z,1029.29
2017-03-26T10:44:00.730Z,1029.39
2017-03-26T10:45:04.236Z,1029.10
2017-03-26T10:46:06.115Z,1028.54
2017-03-26T10:47:11.205Z,1027.56
2017-03-26T10:48:16.481Z,1027.14
2017-03-26T10:49:21.113Z,1026.94
2017-03-26T10:50:25.631Z,1025.67
2017-03-26T10:51:30.083Z,1025.60
2017-03-26T10:52:32.798Z,1026.70
2017-03-26T10:53:37.035Z,1027.88
2017-03-26T10:54:41.552Z,1028.74
2017-03-26T10:55:46.243Z,1029.76
2017-03-26T10:56:50.892Z,1029.98
2017-03-26T10:57:55.554Z,1030.63
2017-03-26T10:59:00.031Z,1030.70
2017-03-26T11:00:04.292Z,1030.76
2017-03-26T11:01:09.037Z,1030.97
2017-03-26T11:02:13.682Z,1030.98
2017-03-26T11:03:18.130Z,1031.24
2017-03-26T11:04:23.040Z,1031.48
2017-03-26T11:05:27.276Z,1031.72
2017-03-26T11:06:31.647Z,1031.92
2017-03-26T11:07:36.285Z,1031.71
2017-03-26T11:08:40.013Z,1031.90
2017-03-26T11:09:44.359Z,1027.59
2017-03-26T11:10:48.916Z,1021.35
2017-03-26T11:11:53.281Z,1020.82
2017-03-26T11:12:58.988Z,1020.73
2017-03-26T11:14:02.008Z,1021.18
2017-03-26T11:15:11.561Z,1021.15
2017-03-26T11:16:15.638Z,1021.15
2017-03-26T11:17:20.268Z,1021.07
2017-03-26T11:18:23.359Z,1021.12
2017-03-26T11:19:26.383Z,1020.81
2017-03-26T11:20:29.285Z,1021.31
2017-03-26T11:21:33.622Z,1021.05
2017-03-26T11:22:38.736Z,1022.58
2017-03-26T11:23:42.254Z,1027.62
2017-03-26T11:24:45.777Z,1030.81
2017-03-26T11:25:50.251Z,1032.12
2017-03-26T11:26:55.011Z,1032.97
2017-03-26T11:27:57.677Z,1033.18
2017-03-26T11:29:03.987Z,1034.06
